Schooner Bowdoin — WAM8653 — position and weather

sailwx.info

Track history (hours):
 
Tides and Currents Weather Stations Pressure Air Temp Water Temp Dewpoint Dewpoint Depression Visibility Wind Speed Wind Dir Waves Ship Positions

Schooner Bowdoin

Training vessel for Maine Maritime Academy.

Ship's website: http://bowdoin.mma.edu/

Owner: MAINE MARITIME ACADEMY, CASTINE, ME. More information available from US FCC via Universal Licensing System and Coast Guard Vessel Documentation Center.

Last reported at 2014-Jun-16 16:31 UTC. Time now 2014-Oct-30 18:21 UTC.
Position N 40°42' W 069°27'.
Warning: this ship's position is months out of date.

; draft 3 m.

Type: Sailing vessel. MMSI: 303498000.

Date/timePositionNaut miles runAvg speedWind from/ knotsBaromVisibWave heightAir tempDewpointWater temp
2014-Jun-16 16:31N 40°42' W 069°27'7 6.8
2014-Jun-16 15:27N 40°43' W 069°36'12 5.8
2014-Jun-16 13:26N 40°41' W 069°52'69 3.1
2014-Jun-15 15:21N 40°43' W 071°23'7 6.0
2014-Jun-15 14:08N 40°40' W 071°32'4 6.9
2014-Jun-15 13:32N 40°38' W 071°37'7 7.0
2014-Jun-15 12:33N 40°36' W 071°46'7 6.7
2014-Jun-15 11:33N 40°34' W 071°54'7 6.7
2014-Jun-15 10:33N 40°33' W 072°03'6 6.1
2014-Jun-15 09:33N 40°33' W 072°11'7 6.4
2014-Jun-15 08:32N 40°33' W 072°19'78 2.1
2014-Jun-13 18:25N 40°36' W 074°03'5 5.9
2014-Jun-13 17:33N 40°41' W 074°02'1 0.6
2014-Jun-13 16:33N 40°42' W 074°02'2 2.4
2014-Jun-13 15:33N 40°42' W 073°59'27 2.9
2014-Jun-13 06:12N 40°58' W 073°30'2 3.1
2014-Jun-13 05:32N 40°59' W 073°28'3 3.6
2014-Jun-13 04:33N 40°60' W 073°23'25 6.2
2014-Jun-13 00:31N 41°03' W 072°50'6 6.6
2014-Jun-12 23:33N 41°04' W 072°42'7 6.7
2014-Jun-12 22:33N 41°05' W 072°33'6 5.7
2014-Jun-12 21:33N 41°08' W 072°26'5 5.4
2014-Jun-12 20:33N 41°10' W 072°20'4 3.7
2014-Jun-12 19:32N 41°12' W 072°16'3 3.2
2014-Jun-12 18:33N 41°15' W 072°13'3 3.1
2014-Jun-12 17:33N 41°16' W 072°10'3 3.3
2014-Jun-12 16:33N 41°16' W 072°05'2 1.9
2014-Jun-12 15:33N 41°17' W 072°05'3 2.5
2014-Jun-12 14:31N 41°20' W 072°05'0 0.0
2014-Jun-12 13:31N 41°20' W 072°05'1 0.6
2014-Jun-12 12:33N 41°20' W 072°05'3 3.2
2014-Jun-12 11:33N 41°17' W 072°06'1 1.3
2014-Jun-12 10:33N 41°16' W 072°05'5 4.7
2014-Jun-12 09:33N 41°15' W 071°59'4 4.1
2014-Jun-12 08:33N 41°15' W 071°54'3 2.7
2014-Jun-12 07:33N 41°14' W 071°51'2 2.1
2014-Jun-12 06:33N 41°12' W 071°49'2 1.8
2014-Jun-12 05:33N 41°10' W 071°48'1 0.6
2014-Jun-12 04:33N 41°10' W 071°48'4 3.5
2014-Jun-12 03:33N 41°13' W 071°46'3 2.9
2014-Jun-12 02:33N 41°16' W 071°44'4 4.0
2014-Jun-12 01:33N 41°19' W 071°41'4 4.2
2014-Jun-12 00:33N 41°19' W 071°36'4 4.0
2014-Jun-11 23:33N 41°22' W 071°32'6 5.7
2014-Jun-11 22:33N 41°21' W 071°25'6 5.9
2014-Jun-11 21:33N 41°20' W 071°17'5 5.0
2014-Jun-11 20:33N 41°19' W 071°10'4 4.2
2014-Jun-11 19:33N 41°23' W 071°07'5 4.9
2014-Jun-11 18:33N 41°26' W 071°02'5 4.9
2014-Jun-11 17:33N 41°29' W 070°57'8 6.9
2014-Jun-11 16:20N 41°34' W 070°48'  
Track history (hours):
 
Tides and Currents Weather Stations Pressure Air Temp Water Temp Dewpoint Dewpoint Depression Visibility Wind Speed Wind Dir Waves Ship Positions

Schooner Bowdoin

Training vessel for Maine Maritime Academy.

Ship's website: http://bowdoin.mma.edu/

Owner: MAINE MARITIME ACADEMY, CASTINE, ME. More information available from US FCC via Universal Licensing System and Coast Guard Vessel Documentation Center.

Last reported at 2014-Jun-16 16:31 UTC. Time now 2014-Oct-30 18:21 UTC.
Position N 40°42' W 069°27'.
Warning: this ship's position is months out of date.

; draft 3 m.

Type: Sailing vessel. MMSI: 303498000.

Date/timePositionNaut miles runAvg speedWind from/ knotsBaromVisibWave heightAir tempDewpointWater temp
2014-Jun-16 16:31N 40°42' W 069°27'7 6.8
2014-Jun-16 15:27N 40°43' W 069°36'12 5.8
2014-Jun-16 13:26N 40°41' W 069°52'69 3.1
2014-Jun-15 15:21N 40°43' W 071°23'7 6.0
2014-Jun-15 14:08N 40°40' W 071°32'4 6.9
2014-Jun-15 13:32N 40°38' W 071°37'7 7.0
2014-Jun-15 12:33N 40°36' W 071°46'7 6.7
2014-Jun-15 11:33N 40°34' W 071°54'7 6.7
2014-Jun-15 10:33N 40°33' W 072°03'6 6.1
2014-Jun-15 09:33N 40°33' W 072°11'7 6.4
2014-Jun-15 08:32N 40°33' W 072°19'78 2.1
2014-Jun-13 18:25N 40°36' W 074°03'5 5.9
2014-Jun-13 17:33N 40°41' W 074°02'1 0.6
2014-Jun-13 16:33N 40°42' W 074°02'2 2.4
2014-Jun-13 15:33N 40°42' W 073°59'27 2.9
2014-Jun-13 06:12N 40°58' W 073°30'2 3.1
2014-Jun-13 05:32N 40°59' W 073°28'3 3.6
2014-Jun-13 04:33N 40°60' W 073°23'25 6.2
2014-Jun-13 00:31N 41°03' W 072°50'6 6.6
2014-Jun-12 23:33N 41°04' W 072°42'7 6.7
2014-Jun-12 22:33N 41°05' W 072°33'6 5.7
2014-Jun-12 21:33N 41°08' W 072°26'5 5.4
2014-Jun-12 20:33N 41°10' W 072°20'4 3.7
2014-Jun-12 19:32N 41°12' W 072°16'3 3.2
2014-Jun-12 18:33N 41°15' W 072°13'3 3.1
2014-Jun-12 17:33N 41°16' W 072°10'3 3.3
2014-Jun-12 16:33N 41°16' W 072°05'2 1.9
2014-Jun-12 15:33N 41°17' W 072°05'3 2.5
2014-Jun-12 14:31N 41°20' W 072°05'0 0.0
2014-Jun-12 13:31N 41°20' W 072°05'1 0.6
2014-Jun-12 12:33N 41°20' W 072°05'3 3.2
2014-Jun-12 11:33N 41°17' W 072°06'1 1.3
2014-Jun-12 10:33N 41°16' W 072°05'5 4.7
2014-Jun-12 09:33N 41°15' W 071°59'4 4.1
2014-Jun-12 08:33N 41°15' W 071°54'3 2.7
2014-Jun-12 07:33N 41°14' W 071°51'2 2.1
2014-Jun-12 06:33N 41°12' W 071°49'2 1.8
2014-Jun-12 05:33N 41°10' W 071°48'1 0.6
2014-Jun-12 04:33N 41°10' W 071°48'4 3.5
2014-Jun-12 03:33N 41°13' W 071°46'3 2.9
2014-Jun-12 02:33N 41°16' W 071°44'4 4.0
2014-Jun-12 01:33N 41°19' W 071°41'4 4.2
2014-Jun-12 00:33N 41°19' W 071°36'4 4.0
2014-Jun-11 23:33N 41°22' W 071°32'6 5.7
2014-Jun-11 22:33N 41°21' W 071°25'6 5.9
2014-Jun-11 21:33N 41°20' W 071°17'5 5.0
2014-Jun-11 20:33N 41°19' W 071°10'4 4.2
2014-Jun-11 19:33N 41°23' W 071°07'5 4.9
2014-Jun-11 18:33N 41°26' W 071°02'5 4.9
2014-Jun-11 17:33N 41°29' W 070°57'8 6.9
2014-Jun-11 16:20N 41°34' W 070°48'  

Dump ship's entire track history